sensor_id;sensor_type;location;lat;lon;timestamp;pressure;altitude;pressure_sealevel;temperature;humidity
61906;BME280;47863;55.766;37.672;2022-12-18T00:00:45;99431.78;;;-3.20;99.48
61906;BME280;47863;55.766;37.672;2022-12-18T00:03:13;99427.56;;;-3.23;99.27
61906;BME280;47863;55.766;37.672;2022-12-18T00:05:50;99419.91;;;-3.26;99.39
61906;BME280;47863;55.766;37.672;2022-12-18T00:08:15;99407.22;;;-3.33;98.89
61906;BME280;47863;55.766;37.672;2022-12-18T00:10:42;99382.41;;;-3.44;99.35
61906;BME280;47863;55.766;37.672;2022-12-18T00:13:07;99401.03;;;-3.32;99.62
61906;BME280;47863;55.766;37.672;2022-12-18T00:15:34;99356.13;;;-3.58;99.68
61906;BME280;47863;55.766;37.672;2022-12-18T00:18:00;99355.03;;;-3.54;99.67
61906;BME280;47863;55.766;37.672;2022-12-18T00:20:25;99384.41;;;-3.31;99.60
61906;BME280;47863;55.766;37.672;2022-12-18T00:22:52;99368.34;;;-3.41;99.51
61906;BME280;47863;55.766;37.672;2022-12-18T00:25:18;99359.72;;;-3.43;99.41
61906;BME280;47863;55.766;37.672;2022-12-18T00:27:43;99382.19;;;-3.39;99.46
61906;BME280;47863;55.766;37.672;2022-12-18T00:30:10;99375.94;;;-3.36;99.46
61906;BME280;47863;55.766;37.672;2022-12-18T00:32:35;99356.34;;;-3.45;99.33
61906;BME280;47863;55.766;37.672;2022-12-18T00:35:01;99362.16;;;-3.40;99.32
61906;BME280;47863;55.766;37.672;2022-12-18T00:37:28;99370.88;;;-3.40;99.48
61906;BME280;47863;55.766;37.672;2022-12-18T00:39:54;99358.97;;;-3.45;99.38
61906;BME280;47863;55.766;37.672;2022-12-18T00:42:19;99365.88;;;-3.44;99.41
61906;BME280;47863;55.766;37.672;2022-12-18T00:45:03;99359.78;;;-3.45;99.45
61906;BME280;47863;55.766;37.672;2022-12-18T00:47:29;99344.91;;;-3.60;99.04
61906;BME280;47863;55.766;37.672;2022-12-18T00:49:54;99330.38;;;-3.66;99.42
61906;BME280;47863;55.766;37.672;2022-12-18T00:52:20;99331.06;;;-3.62;99.53
61906;BME280;47863;55.766;37.672;2022-12-18T00:54:45;99335.19;;;-3.58;98.86
61906;BME280;47863;55.766;37.672;2022-12-18T00:57:11;99323.13;;;-3.61;99.48
61906;BME280;47863;55.766;37.672;2022-12-18T00:59:36;99290.53;;;-3.71;99.07
61906;BME280;47863;55.766;37.672;2022-12-18T01:02:02;99328.38;;;-3.45;99.54
61906;BME280;47863;55.766;37.672;2022-12-18T01:04:31;99330.16;;;-3.45;99.44
61906;BME280;47863;55.766;37.672;2022-12-18T01:06:57;99316.19;;;-3.46;99.50
61906;BME280;47863;55.766;37.672;2022-12-18T01:09:22;99307.91;;;-3.54;99.33
61906;BME280;47863;55.766;37.672;2022-12-18T01:11:48;99312.81;;;-3.48;99.42
61906;BME280;47863;55.766;37.672;2022-12-18T01:14:13;99297.03;;;-3.46;99.58
61906;BME280;47863;55.766;37.672;2022-12-18T01:16:39;99279.31;;;-3.57;99.22
61906;BME280;47863;55.766;37.672;2022-12-18T01:19:04;99300.59;;;-3.47;99.21
61906;BME280;47863;55.766;37.672;2022-12-18T01:21:30;99290.19;;;-3.49;99.38
61906;BME280;47863;55.766;37.672;2022-12-18T01:23:56;99291.28;;;-3.53;99.25
61906;BME280;47863;55.766;37.672;2022-12-18T01:26:22;99263.25;;;-3.67;99.70
61906;BME280;47863;55.766;37.672;2022-12-18T01:28:48;99258.84;;;-3.66;99.23
61906;BME280;47863;55.766;37.672;2022-12-18T01:31:19;99284.19;;;-3.51;99.49
61906;BME280;47863;55.766;37.672;2022-12-18T01:33:49;99276.50;;;-3.54;99.46
61906;BME280;47863;55.766;37.672;2022-12-18T01:36:21;99284.19;;;-3.51;99.36
61906;BME280;47863;55.766;37.672;2022-12-18T01:38:47;99285.09;;;-3.52;99.14
61906;BME280;47863;55.766;37.672;2022-12-18T01:41:17;99299.91;;;-3.51;99.44
61906;BME280;47863;55.766;37.672;2022-12-18T01:43:55;99261.81;;;-3.72;99.52
61906;BME280;47863;55.766;37.672;2022-12-18T01:46:26;99285.31;;;-3.55;99.33
61906;BME280;47863;55.766;37.672;2022-12-18T01:48:58;99277.78;;;-3.61;99.38
61906;BME280;47863;55.766;37.672;2022-12-18T01:51:27;99292.41;;;-3.57;99.22
61906;BME280;47863;55.766;37.672;2022-12-18T01:53:52;99284.00;;;-3.64;99.11
61906;BME280;47863;55.766;37.672;2022-12-18T01:56:19;99273.88;;;-3.70;99.41
61906;BME280;47863;55.766;37.672;2022-12-18T01:59:02;99284.13;;;-3.65;99.13
61906;BME280;47863;55.766;37.672;2022-12-18T02:01:29;99277.94;;;-3.64;99.46
61906;BME280;47863;55.766;37.672;2022-12-18T02:03:56;99279.72;;;-3.65;99.18
61906;BME280;47863;55.766;37.672;2022-12-18T02:06:39;99282.41;;;-3.66;98.87
61906;BME280;47863;55.766;37.672;2022-12-18T02:09:22;99278.00;;;-3.66;99.11
61906;BME280;47863;55.766;37.672;2022-12-18T02:20:00;99278.28;;;-3.70;98.60
61906;BME280;47863;55.766;37.672;2022-12-18T02:26:01;99283.50;;;-3.70;98.53
61906;BME280;47863;55.766;37.672;2022-12-18T02:28:33;99286.06;;;-3.69;98.64
61906;BME280;47863;55.766;37.672;2022-12-18T02:31:01;99271.53;;;-3.74;98.67
61906;BME280;47863;55.766;37.672;2022-12-18T02:33:30;99268.06;;;-3.75;98.77
61906;BME280;47863;55.766;37.672;2022-12-18T02:35:58;99228.13;;;-3.94;98.68
61906;BME280;47863;55.766;37.672;2022-12-18T02:38:25;99261.88;;;-3.74;98.24
61906;BME280;47863;55.766;37.672;2022-12-18T02:40:52;99274.06;;;-3.73;97.78
61906;BME280;47863;55.766;37.672;2022-12-18T02:43:18;99286.22;;;-3.72;98.09
61906;BME280;47863;55.766;37.672;2022-12-18T02:48:18;99278.13;;;-3.67;98.76
61906;BME280;47863;55.766;37.672;2022-12-18T02:50:55;99265.53;;;-3.76;98.37
61906;BME280;47863;55.766;37.672;2022-12-18T02:53:43;99273.81;;;-3.68;98.49
61906;BME280;47863;55.766;37.672;2022-12-18T02:56:18;99238.50;;;-3.93;98.60
61906;BME280;47863;55.766;37.672;2022-12-18T02:59:11;99284.34;;;-3.70;97.56
61906;BME280;47863;55.766;37.672;2022-12-18T03:01:46;99274.72;;;-3.69;98.28
61906;BME280;47863;55.766;37.672;2022-12-18T03:04:21;99276.34;;;-3.67;98.33
61906;BME280;47863;55.766;37.672;2022-12-18T03:06:52;99252.38;;;-3.75;98.56
61906;BME280;47863;55.766;37.672;2022-12-18T03:09:24;99264.84;;;-3.64;98.03
61906;BME280;47863;55.766;37.672;2022-12-18T03:12:10;99253.00;;;-3.71;98.29
61906;BME280;47863;55.766;37.672;2022-12-18T03:17:27;99245.63;;;-3.79;97.18
61906;BME280;47863;55.766;37.672;2022-12-18T03:19:56;99262.66;;;-3.72;97.50
61906;BME280;47863;55.766;37.672;2022-12-18T03:22:24;99259.13;;;-3.71;97.71
61906;BME280;47863;55.766;37.672;2022-12-18T03:24:53;99239.28;;;-3.91;97.50
61906;BME280;47863;55.766;37.672;2022-12-18T03:27:22;99257.00;;;-3.80;97.87
61906;BME280;47863;55.766;37.672;2022-12-18T03:29:53;99227.25;;;-3.95;97.95
61906;BME280;47863;55.766;37.672;2022-12-18T03:32:29;99263.59;;;-3.73;97.75
61906;BME280;47863;55.766;37.672;2022-12-18T03:35:00;99278.44;;;-3.73;97.25
61906;BME280;47863;55.766;37.672;2022-12-18T03:37:31;99286.22;;;-3.72;97.84
61906;BME280;47863;55.766;37.672;2022-12-18T03:39:57;99268.06;;;-3.75;98.29
61906;BME280;47863;55.766;37.672;2022-12-18T03:42:27;99278.88;;;-3.65;98.42
61906;BME280;47863;55.766;37.672;2022-12-18T03:50:30;99266.88;;;-3.69;97.66
61906;BME280;47863;55.766;37.672;2022-12-18T03:53:08;99265.13;;;-3.69;98.08
61906;BME280;47863;55.766;37.672;2022-12-18T03:55:35;99266.09;;;-3.71;97.82
61906;BME280;47863;55.766;37.672;2022-12-18T03:58:02;99261.81;;;-3.72;97.96
61906;BME280;47863;55.766;37.672;2022-12-18T04:00:29;99272.28;;;-3.72;98.11
61906;BME280;47863;55.766;37.672;2022-12-18T04:02:57;99268.66;;;-3.70;98.17
61906;BME280;47863;55.766;37.672;2022-12-18T04:05:26;99272.22;;;-3.71;98.21
61906;BME280;47863;55.766;37.672;2022-12-18T04:07:53;99231.44;;;-3.91;98.20
61906;BME280;47863;55.766;37.672;2022-12-18T04:10:19;99237.72;;;-3.95;98.46
61906;BME280;47863;55.766;37.672;2022-12-18T04:12:45;99259.34;;;-3.75;97.91
61906;BME280;47863;55.766;37.672;2022-12-18T04:15:11;99262.16;;;-3.79;97.34
61906;BME280;47863;55.766;37.672;2022-12-18T04:17:38;99263.75;;;-3.76;98.26
61906;BME280;47863;55.766;37.672;2022-12-18T04:20:04;99249.06;;;-3.94;98.16
61906;BME280;47863;55.766;37.672;2022-12-18T04:22:30;99258.50;;;-3.92;97.97
61906;BME280;47863;55.766;37.672;2022-12-18T04:24:55;99290.19;;;-3.81;97.89
61906;BME280;47863;55.766;37.672;2022-12-18T04:27:21;99292.09;;;-3.84;98.16
61906;BME280;47863;55.766;37.672;2022-12-18T04:29:46;99306.09;;;-3.85;98.15
61906;BME280;47863;55.766;37.672;2022-12-18T04:32:12;99319.81;;;-3.80;98.23
61906;BME280;47863;55.766;37.672;2022-12-18T04:34:37;99304.84;;;-3.94;97.94
61906;BME280;47863;55.766;37.672;2022-12-18T04:37:03;99320.97;;;-3.86;98.29
61906;BME280;47863;55.766;37.672;2022-12-18T04:39:28;99267.06;;;-4.22;98.03
61906;BME280;47863;55.766;37.672;2022-12-18T04:41:54;99319.16;;;-4.01;97.80
61906;BME280;47863;55.766;37.672;2022-12-18T04:44:20;99301.56;;;-4.15;97.87
61906;BME280;47863;55.766;37.672;2022-12-18T04:46:45;99348.47;;;-3.94;98.01
61906;BME280;47863;55.766;37.672;2022-12-18T04:49:11;99331.56;;;-4.05;97.67
61906;BME280;47863;55.766;37.672;2022-12-18T04:51:37;99320.81;;;-4.16;97.88
61906;BME280;47863;55.766;37.672;2022-12-18T04:54:02;99336.72;;;-4.21;97.23
61906;BME280;47863;55.766;37.672;2022-12-18T04:56:28;99336.97;;;-4.25;98.04
61906;BME280;47863;55.766;37.672;2022-12-18T04:58:55;99332.00;;;-4.30;97.79
61906;BME280;47863;55.766;37.672;2022-12-18T05:01:21;99380.41;;;-4.05;97.68
61906;BME280;47863;55.766;37.672;2022-12-18T05:03:46;99378.66;;;-4.05;97.95
61906;BME280;47863;55.766;37.672;2022-12-18T05:06:12;99373.50;;;-4.06;97.73
61906;BME280;47863;55.766;37.672;2022-12-18T05:08:37;99368.22;;;-4.05;97.99
61906;BME280;47863;55.766;37.672;2022-12-18T05:11:08;99329.75;;;-4.20;98.50
61906;BME280;47863;55.766;37.672;2022-12-18T05:13:34;99360.19;;;-4.02;97.92
61906;BME280;47863;55.766;37.672;2022-12-18T05:16:01;99334.91;;;-4.19;97.87
61906;BME280;47863;55.766;37.672;2022-12-18T05:18:27;99346.59;;;-4.08;98.36
61906;BME280;47863;55.766;37.672;2022-12-18T05:20:53;99340.81;;;-4.15;97.74
61906;BME280;47863;55.766;37.672;2022-12-18T05:23:20;99364.66;;;-4.04;97.98
61906;BME280;47863;55.766;37.672;2022-12-18T05:28:19;99328.63;;;-4.32;97.64
61906;BME280;47863;55.766;37.672;2022-12-18T05:30:51;99332.31;;;-4.36;97.54
61906;BME280;47863;55.766;37.672;2022-12-18T05:33:17;99370.50;;;-4.16;98.08
61906;BME280;47863;55.766;37.672;2022-12-18T05:35:43;99388.66;;;-4.13;97.77
61906;BME280;47863;55.766;37.672;2022-12-18T05:38:08;99376.97;;;-4.23;97.81
61906;BME280;47863;55.766;37.672;2022-12-18T05:40:34;99401.84;;;-4.14;97.45
61906;BME280;47863;55.766;37.672;2022-12-18T05:42:59;99356.22;;;-4.44;97.80
61906;BME280;47863;55.766;37.672;2022-12-18T05:45:25;99412.88;;;-4.09;97.89
61906;BME280;47863;55.766;37.672;2022-12-18T05:47:50;99421.56;;;-4.09;97.65
61906;BME280;47863;55.766;37.672;2022-12-18T05:50:16;99413.84;;;-4.10;96.83
61906;BME280;47863;55.766;37.672;2022-12-18T05:52:41;99409.69;;;-4.14;97.69
61906;BME280;47863;55.766;37.672;2022-12-18T05:55:07;99407.34;;;-4.21;97.85
61906;BME280;47863;55.766;37.672;2022-12-18T05:57:33;99432.22;;;-4.12;97.57
61906;BME280;47863;55.766;37.672;2022-12-18T05:59:58;99446.00;;;-4.08;97.70
61906;BME280;47863;55.766;37.672;2022-12-18T06:02:24;99447.66;;;-4.07;97.88
61906;BME280;47863;55.766;37.672;2022-12-18T06:04:49;99441.22;;;-4.18;98.07
61906;BME280;47863;55.766;37.672;2022-12-18T06:07:15;99452.31;;;-4.12;97.66
61906;BME280;47863;55.766;37.672;2022-12-18T06:09:40;99455.69;;;-4.10;98.03
61906;BME280;47863;55.766;37.672;2022-12-18T06:12:06;99451.53;;;-4.14;97.54
61906;BME280;47863;55.766;37.672;2022-12-18T06:14:31;99454.16;;;-4.14;97.64
61906;BME280;47863;55.766;37.672;2022-12-18T06:16:57;99437.97;;;-4.23;98.04
61906;BME280;47863;55.766;37.672;2022-12-18T06:19:22;99468.00;;;-4.12;98.09
61906;BME280;47863;55.766;37.672;2022-12-18T06:21:48;99461.06;;;-4.13;97.99
61906;BME280;47863;55.766;37.672;2022-12-18T06:24:14;99469.75;;;-4.13;98.25
61906;BME280;47863;55.766;37.672;2022-12-18T06:26:40;99456.56;;;-4.29;97.71
61906;BME280;47863;55.766;37.672;2022-12-18T06:29:06;99443.81;;;-4.35;98.00
61906;BME280;47863;55.766;37.672;2022-12-18T06:31:32;99465.81;;;-4.22;97.88
61906;BME280;47863;55.766;37.672;2022-12-18T06:33:57;99478.47;;;-4.12;98.04
61906;BME280;47863;55.766;37.672;2022-12-18T06:36:23;99473.59;;;-4.20;98.19
61906;BME280;47863;55.766;37.672;2022-12-18T06:38:49;99430.44;;;-4.46;98.25
61906;BME280;47863;55.766;37.672;2022-12-18T06:41:17;99471.44;;;-4.12;98.41
61906;BME280;47863;55.766;37.672;2022-12-18T06:43:43;99457.03;;;-4.21;98.69
61906;BME280;47863;55.766;37.672;2022-12-18T06:46:09;99508.22;;;-3.97;98.48
61906;BME280;47863;55.766;37.672;2022-12-18T06:48:35;99503.63;;;-3.92;98.56
61906;BME280;47863;55.766;37.672;2022-12-18T06:51:01;99509.69;;;-3.92;98.30
61906;BME280;47863;55.766;37.672;2022-12-18T06:53:26;99510.31;;;-4.04;98.42
61906;BME280;47863;55.766;37.672;2022-12-18T06:55:52;99533.09;;;-3.89;98.51
61906;BME280;47863;55.766;37.672;2022-12-18T06:58:18;99540.78;;;-3.86;98.72
61906;BME280;47863;55.766;37.672;2022-12-18T07:00:43;99544.34;;;-3.87;98.42
61906;BME280;47863;55.766;37.672;2022-12-18T07:03:10;99501.13;;;-4.13;98.47
61906;BME280;47863;55.766;37.672;2022-12-18T07:05:39;99555.28;;;-3.79;98.96
61906;BME280;47863;55.766;37.672;2022-12-18T07:08:05;99554.97;;;-3.72;98.71
61906;BME280;47863;55.766;37.672;2022-12-18T07:10:30;99521.16;;;-3.94;98.30
61906;BME280;47863;55.766;37.672;2022-12-18T07:12:56;99547.13;;;-3.72;98.21
61906;BME280;47863;55.766;37.672;2022-12-18T07:15:21;99495.16;;;-3.97;97.75
61906;BME280;47863;55.766;37.672;2022-12-18T07:17:47;99560.41;;;-3.60;97.57
61906;BME280;47863;55.766;37.672;2022-12-18T07:20:12;99555.94;;;-3.58;97.47
61906;BME280;47863;55.766;37.672;2022-12-18T07:22:38;99504.31;;;-3.89;97.50
61906;BME280;47863;55.766;37.672;2022-12-18T07:25:03;99517.94;;;-3.82;97.73
61906;BME280;47863;55.766;37.672;2022-12-18T07:27:29;99573.06;;;-3.50;97.53
61906;BME280;47863;55.766;37.672;2022-12-18T07:29:55;99587.53;;;-3.43;98.32
61906;BME280;47863;55.766;37.672;2022-12-18T07:32:20;99580.91;;;-3.50;98.29
61906;BME280;47863;55.766;37.672;2022-12-18T07:34:46;99499.00;;;-4.05;97.95
61906;BME280;47863;55.766;37.672;2022-12-18T07:37:11;99601.41;;;-3.41;98.41
61906;BME280;47863;55.766;37.672;2022-12-18T07:39:37;99603.16;;;-3.42;98.38
61906;BME280;47863;55.766;37.672;2022-12-18T07:42:02;99611.81;;;-3.40;98.12
61906;BME280;47863;55.766;37.672;2022-12-18T07:44:46;99578.22;;;-3.66;96.79
61906;BME280;47863;55.766;37.672;2022-12-18T07:47:12;99607.47;;;-3.41;97.27
61906;BME280;47863;55.766;37.672;2022-12-18T07:49:37;99617.06;;;-3.40;96.73
61906;BME280;47863;55.766;37.672;2022-12-18T07:52:03;99602.31;;;-3.42;98.12
61906;BME280;47863;55.766;37.672;2022-12-18T07:54:28;99554.50;;;-3.63;97.93
61906;BME280;47863;55.766;37.672;2022-12-18T07:56:54;99592.84;;;-3.45;97.27
61906;BME280;47863;55.766;37.672;2022-12-18T07:59:20;99586.78;;;-3.45;97.64
61906;BME280;47863;55.766;37.672;2022-12-18T08:01:45;99606.16;;;-3.32;97.15
61906;BME280;47863;55.766;37.672;2022-12-18T08:04:11;99584.06;;;-3.44;98.35
61906;BME280;47863;55.766;37.672;2022-12-18T08:06:37;99630.81;;;-3.19;98.64
61906;BME280;47863;55.766;37.672;2022-12-18T08:09:03;99604.25;;;-3.28;97.60
61906;BME280;47863;55.766;37.672;2022-12-18T08:11:29;99606.72;;;-3.25;98.12
61906;BME280;47863;55.766;37.672;2022-12-18T08:13:55;99598.41;;;-3.33;97.47
61906;BME280;47863;55.766;37.672;2022-12-18T08:16:21;99640.13;;;-3.13;98.06
61906;BME280;47863;55.766;37.672;2022-12-18T08:18:47;99641.75;;;-3.10;98.19
61906;BME280;47863;55.766;37.672;2022-12-18T08:23:40;99658.09;;;-3.05;98.43
61906;BME280;47863;55.766;37.672;2022-12-18T08:26:07;99669.28;;;-3.02;98.54
61906;BME280;47863;55.766;37.672;2022-12-18T08:28:33;99684.94;;;-3.00;98.80
61906;BME280;47863;55.766;37.672;2022-12-18T08:30:58;99687.44;;;-2.99;98.60
61906;BME280;47863;55.766;37.672;2022-12-18T08:33:24;99672.03;;;-3.05;98.10
61906;BME280;47863;55.766;37.672;2022-12-18T08:35:50;99686.34;;;-2.94;98.19
61906;BME280;47863;55.766;37.672;2022-12-18T08:38:15;99679.91;;;-3.05;97.72
61906;BME280;47863;55.766;37.672;2022-12-18T08:40:41;99676.44;;;-3.05;97.77
61906;BME280;47863;55.766;37.672;2022-12-18T08:43:08;99689.09;;;-2.96;97.26
61906;BME280;47863;55.766;37.672;2022-12-18T08:45:53;99696.94;;;-2.96;97.61
61906;BME280;47863;55.766;37.672;2022-12-18T08:48:18;99684.69;;;-2.95;97.39
61906;BME280;47863;55.766;37.672;2022-12-18T08:50:56;99690.75;;;-2.95;98.00
61906;BME280;47863;55.766;37.672;2022-12-18T08:53:26;99697.78;;;-2.95;98.01
61906;BME280;47863;55.766;37.672;2022-12-18T08:55:52;99679.69;;;-3.00;98.56
61906;BME280;47863;55.766;37.672;2022-12-18T08:58:18;99690.31;;;-3.03;97.73
61906;BME280;47863;55.766;37.672;2022-12-18T09:00:43;99696.84;;;-2.94;97.90
61906;BME280;47863;55.766;37.672;2022-12-18T09:03:13;99707.19;;;-2.91;98.18
61906;BME280;47863;55.766;37.672;2022-12-18T09:05:39;99649.78;;;-3.31;97.13
61906;BME280;47863;55.766;37.672;2022-12-18T09:08:04;99690.38;;;-3.05;97.86
61906;BME280;47863;55.766;37.672;2022-12-18T09:10:31;99705.41;;;-2.91;97.77
61906;BME280;47863;55.766;37.672;2022-12-18T09:12:57;99677.53;;;-3.09;98.20
61906;BME280;47863;55.766;37.672;2022-12-18T09:15:22;99610.56;;;-3.50;97.80
61906;BME280;47863;55.766;37.672;2022-12-18T09:17:48;99714.09;;;-2.90;97.39
61906;BME280;47863;55.766;37.672;2022-12-18T09:20:15;99618.59;;;-3.53;96.35
61906;BME280;47863;55.766;37.672;2022-12-18T09:22:41;99719.53;;;-2.93;97.12
61906;BME280;47863;55.766;37.672;2022-12-18T09:25:06;99669.59;;;-3.25;96.57
61906;BME280;47863;55.766;37.672;2022-12-18T09:27:35;99704.72;;;-3.12;95.61
61906;BME280;47863;55.766;37.672;2022-12-18T09:30:01;99684.16;;;-3.20;96.98
61906;BME280;47863;55.766;37.672;2022-12-18T09:32:28;99714.53;;;-2.98;97.73
61906;BME280;47863;55.766;37.672;2022-12-18T09:34:53;99746.19;;;-2.85;97.77
61906;BME280;47863;55.766;37.672;2022-12-18T09:37:19;99733.63;;;-2.96;97.35
61906;BME280;47863;55.766;37.672;2022-12-18T09:39:44;99725.78;;;-2.96;97.67
61906;BME280;47863;55.766;37.672;2022-12-18T09:42:20;99758.84;;;-2.76;97.94
61906;BME280;47863;55.766;37.672;2022-12-18T09:44:50;99765.78;;;-2.75;98.24
61906;BME280;47863;55.766;37.672;2022-12-18T09:47:18;99767.56;;;-2.75;98.17
61906;BME280;47863;55.766;37.672;2022-12-18T09:49:47;99773.03;;;-2.80;97.63
61906;BME280;47863;55.766;37.672;2022-12-18T09:54:53;99774.97;;;-2.84;97.85
61906;BME280;47863;55.766;37.672;2022-12-18T09:57:22;99777.50;;;-2.82;98.04
61906;BME280;47863;55.766;37.672;2022-12-18T10:00:15;99781.81;;;-2.81;97.95
61906;BME280;47863;55.766;37.672;2022-12-18T10:02:43;99778.34;;;-2.82;98.08
61906;BME280;47863;55.766;37.672;2022-12-18T10:05:14;99781.28;;;-2.88;98.51
61906;BME280;47863;55.766;37.672;2022-12-18T10:07:53;99766.69;;;-2.93;98.57
61906;BME280;47863;55.766;37.672;2022-12-18T10:10:38;99786.16;;;-2.80;98.36
61906;BME280;47863;55.766;37.672;2022-12-18T10:21:43;99801.78;;;-2.79;96.39
61906;BME280;47863;55.766;37.672;2022-12-18T10:27:11;99804.16;;;-2.91;98.06
61906;BME280;47863;55.766;37.672;2022-12-18T10:29:37;99802.00;;;-2.83;97.08
61906;BME280;47863;55.766;37.672;2022-12-18T10:32:03;99781.41;;;-2.91;97.26
61906;BME280;47863;55.766;37.672;2022-12-18T10:34:28;99798.56;;;-2.84;97.42
61906;BME280;47863;55.766;37.672;2022-12-18T10:36:54;99787.66;;;-2.93;97.75
61906;BME280;47863;55.766;37.672;2022-12-18T10:39:22;99796.06;;;-2.87;97.49
61906;BME280;47863;55.766;37.672;2022-12-18T10:41:52;99795.16;;;-2.86;98.09
61906;BME280;47863;55.766;37.672;2022-12-18T10:44:20;99802.94;;;-2.84;97.78
61906;BME280;47863;55.766;37.672;2022-12-18T10:46:53;99786.19;;;-2.99;97.20
61906;BME280;47863;55.766;37.672;2022-12-18T10:49:29;99769.31;;;-3.11;97.35
61906;BME280;47863;55.766;37.672;2022-12-18T10:52:18;99814.66;;;-2.91;96.16
61906;BME280;47863;55.766;37.672;2022-12-18T10:54:57;99809.66;;;-2.96;97.86
61906;BME280;47863;55.766;37.672;2022-12-18T10:59:55;99838.72;;;-2.83;97.47
61906;BME280;47863;55.766;37.672;2022-12-18T11:02:34;99844.91;;;-2.84;97.42
61906;BME280;47863;55.766;37.672;2022-12-18T11:05:00;99850.91;;;-2.82;98.05
61906;BME280;47863;55.766;37.672;2022-12-18T11:07:49;99867.56;;;-2.83;97.73
61906;BME280;47863;55.766;37.672;2022-12-18T11:10:28;99869.25;;;-2.82;97.79
61906;BME280;47863;55.766;37.672;2022-12-18T11:12:54;99868.25;;;-2.80;97.89
61906;BME280;47863;55.766;37.672;2022-12-18T11:15:23;99871.25;;;-2.87;96.75
61906;BME280;47863;55.766;37.672;2022-12-18T11:17:51;99851.25;;;-3.07;97.35
61906;BME280;47863;55.766;37.672;2022-12-18T11:20:31;99878.34;;;-2.89;97.68
61906;BME280;47863;55.766;37.672;2022-12-18T11:22:59;99862.25;;;-3.01;98.02
61906;BME280;47863;55.766;37.672;2022-12-18T11:25:30;99877.19;;;-2.84;98.28
61906;BME280;47863;55.766;37.672;2022-12-18T11:27:58;99873.50;;;-2.80;98.38
61906;BME280;47863;55.766;37.672;2022-12-18T11:30:26;99873.97;;;-2.71;97.87
61906;BME280;47863;55.766;37.672;2022-12-18T11:33:16;99892.09;;;-2.67;98.19
61906;BME280;47863;55.766;37.672;2022-12-18T11:35:52;99861.41;;;-2.82;97.22
61906;BME280;47863;55.766;37.672;2022-12-18T11:38:24;99874.97;;;-2.74;97.73
61906;BME280;47863;55.766;37.672;2022-12-18T11:41:20;99881.53;;;-2.65;97.49
61906;BME280;47863;55.766;37.672;2022-12-18T11:43:55;99879.63;;;-2.62;97.79
61906;BME280;47863;55.766;37.672;2022-12-18T11:46:37;99873.44;;;-2.78;97.78
61906;BME280;47863;55.766;37.672;2022-12-18T11:49:10;99894.09;;;-2.72;97.73
61906;BME280;47863;55.766;37.672;2022-12-18T11:51:43;99891.63;;;-2.75;97.75
61906;BME280;47863;55.766;37.672;2022-12-18T11:54:15;99900.44;;;-2.76;98.17
61906;BME280;47863;55.766;37.672;2022-12-18T12:02:42;99911.50;;;-2.88;98.07
61906;BME280;47863;55.766;37.672;2022-12-18T12:05:48;99925.94;;;-2.80;97.75
61906;BME280;47863;55.766;37.672;2022-12-18T12:12:17;99951.09;;;-2.75;98.11
61906;BME280;47863;55.766;37.672;2022-12-18T12:17:18;99972.28;;;-2.80;96.21
61906;BME280;47863;55.766;37.672;2022-12-18T12:25:37;99949.81;;;-3.05;97.19
61906;BME280;47863;55.766;37.672;2022-12-18T12:28:36;99975.25;;;-2.88;97.34
61906;BME280;47863;55.766;37.672;2022-12-18T12:31:23;99979.84;;;-2.93;97.27
61906;BME280;47863;55.766;37.672;2022-12-18T12:39:36;99988.00;;;-2.99;97.34
61906;BME280;47863;55.766;37.672;2022-12-18T12:42:32;99998.25;;;-2.94;97.38
61906;BME280;47863;55.766;37.672;2022-12-18T12:45:41;99991.34;;;-2.95;97.52
61906;BME280;47863;55.766;37.672;2022-12-18T12:48:16;100009.53;;;-2.92;97.32
61906;BME280;47863;55.766;37.672;2022-12-18T12:50:42;99992.69;;;-3.06;96.81
61906;BME280;47863;55.766;37.672;2022-12-18T12:53:17;99975.25;;;-3.26;97.50
61906;BME280;47863;55.766;37.672;2022-12-18T12:55:46;100023.41;;;-2.90;97.73
61906;BME280;47863;55.766;37.672;2022-12-18T13:01:00;100038.50;;;-2.95;96.24
61906;BME280;47863;55.766;37.672;2022-12-18T13:09:21;100027.56;;;-3.24;96.70
61906;BME280;47863;55.766;37.672;2022-12-18T13:11:47;100070.97;;;-2.98;97.09
61906;BME280;47863;55.766;37.672;2022-12-18T13:14:35;100067.19;;;-2.92;97.30
61906;BME280;47863;55.766;37.672;2022-12-18T13:17:33;100076.72;;;-2.90;96.92
61906;BME280;47863;55.766;37.672;2022-12-18T13:20:05;100084.34;;;-2.85;97.21
61906;BME280;47863;55.766;37.672;2022-12-18T13:22:35;100058.03;;;-3.03;96.95
61906;BME280;47863;55.766;37.672;2022-12-18T13:25:02;100083.84;;;-2.93;96.52
61906;BME280;47863;55.766;37.672;2022-12-18T13:43:54;100126.69;;;-2.94;97.21
61906;BME280;47863;55.766;37.672;2022-12-18T13:46:30;100110.72;;;-3.09;97.73
61906;BME280;47863;55.766;37.672;2022-12-18T13:51:44;100140.59;;;-2.92;97.51
61906;BME280;47863;55.766;37.672;2022-12-18T13:54:26;100160.97;;;-2.99;96.48
61906;BME280;47863;55.766;37.672;2022-12-18T13:56:54;100163.59;;;-2.99;97.16
61906;BME280;47863;55.766;37.672;2022-12-18T13:59:21;100158.47;;;-3.02;97.38
61906;BME280;47863;55.766;37.672;2022-12-18T14:04:29;100174.41;;;-3.07;97.03
61906;BME280;47863;55.766;37.672;2022-12-18T14:07:22;100186.63;;;-3.06;96.77
61906;BME280;47863;55.766;37.672;2022-12-18T14:09:54;100181.16;;;-3.01;97.44
61906;BME280;47863;55.766;37.672;2022-12-18T14:12:30;100168.53;;;-3.12;97.39
61906;BME280;47863;55.766;37.672;2022-12-18T14:17:55;100207.84;;;-2.91;97.85
61906;BME280;47863;55.766;37.672;2022-12-18T14:20:24;100198.13;;;-2.89;98.05
61906;BME280;47863;55.766;37.672;2022-12-18T14:22:50;100212.97;;;-2.88;97.52
61906;BME280;47863;55.766;37.672;2022-12-18T14:25:17;100214.97;;;-2.95;97.17
61906;BME280;47863;55.766;37.672;2022-12-18T14:27:50;100200.94;;;-3.14;97.42
61906;BME280;47863;55.766;37.672;2022-12-18T14:33:13;100221.97;;;-3.16;97.58
61906;BME280;47863;55.766;37.672;2022-12-18T14:36:02;100218.63;;;-3.20;97.64
61906;BME280;47863;55.766;37.672;2022-12-18T14:41:00;100244.16;;;-3.25;97.00
61906;BME280;47863;55.766;37.672;2022-12-18T14:43:28;100188.69;;;-3.56;97.29
61906;BME280;47863;55.766;37.672;2022-12-18T14:45:55;100242.09;;;-3.39;97.48